Time;durP1;ratioP1;P1;durP2;ratioP2;P2;SDS_P1;SDS_P2;PMS_P1;PMS_P2;Temp;Humidity;BMP_temperature;BMP_pressure;BME280_temperature;BME280_humidity;BME280_pressure;Samples;Min_cycle;Max_cycle;Signal;HPM_P1;HPM_P2
2023/04/19 00:00:24;;;;;;;;;;;13.20;90.90;;;13.44;55.40;99251.69;4987138;28;125100;-85
2023/04/19 00:02:50;;;;;;;;;;;13.20;91.00;;;13.45;55.46;99249.72;4984331;28;115410;-87
2023/04/19 00:05:17;;;;;;;;;;;13.10;91.00;;;13.43;55.47;99244.50;4968538;28;114740;-84
2023/04/19 00:07:46;;;;;;;;;;;13.20;91.00;;;13.43;55.38;99250.06;4967258;28;124826;-87
2023/04/19 00:10:13;;;;;;;;;;;13.10;91.00;;;13.40;55.50;99238.75;4987398;28;124014;-86
2023/04/19 00:12:39;;;;;;;;;;;13.10;91.10;;;13.41;55.45;99246.78;4973884;28;114291;-88
2023/04/19 00:15:06;;;;;;;;;;;13.10;91.10;;;13.40;55.58;99249.88;4985700;28;113860;-86
2023/04/19 00:17:34;;;;;;;;;;;13.10;91.10;;;13.38;55.63;99243.81;4970937;28;124517;-87
2023/04/19 00:20:00;;;;;;;;;;;13.00;91.20;;;13.32;55.46;99242.31;4986112;28;124035;-85
2023/04/19 00:22:27;;;;;;;;;;;13.00;91.20;;;13.32;55.76;99240.34;4962408;28;113444;-86
2023/04/19 00:24:53;;;;;;;;;;;13.00;91.20;;;13.34;55.65;99245.59;4980499;28;113640;-85
2023/04/19 00:27:22;;;;;;;;;;;13.00;91.30;;;13.31;56.02;99232.38;4967475;28;124001;-86
2023/04/19 00:29:49;;;;;;;;;;;13.00;91.40;;;13.23;55.99;99234.75;4982042;28;123196;-87
2023/04/19 00:32:15;;;;;;;;;;;12.80;91.40;;;13.19;56.05;99233.75;4969460;28;113753;-87
2023/04/19 00:34:42;;;;;;;;;;;12.80;91.50;;;13.15;56.22;99235.53;4967763;28;113602;-88
2023/04/19 00:37:10;;;;;;;;;;;12.80;91.50;;;13.14;56.34;99238.63;4966933;28;124004;-87
2023/04/19 00:39:36;;;;;;;;;;;12.80;91.50;;;13.14;56.19;99236.66;4967429;28;123940;-85
2023/04/19 00:42:05;;;;;;;;;;;12.80;91.40;;;13.17;56.53;99224.94;4967487;28;114238;-86
2023/04/19 00:44:34;;;;;;;;;;;12.90;91.50;;;13.20;56.32;99229.84;4978493;28;113452;-87
2023/04/19 00:47:00;;;;;;;;;;;12.90;91.50;;;13.25;56.16;99237.22;4977695;28;124805;-87
2023/04/19 00:49:27;;;;;;;;;;;12.90;91.50;;;13.26;56.04;99228.56;4971873;28;123916;-87
2023/04/19 00:51:53;;;;;;;;;;;13.00;91.50;;;13.30;56.14;99230.72;4970811;28;115380;-84
2023/04/19 00:54:22;;;;;;;;;;;13.30;91.60;;;13.30;56.28;99227.94;4974286;28;115017;-87
2023/04/19 00:56:49;;;;;;;;;;;13.00;91.40;;;13.30;55.98;99226.00;4978069;28;124198;-87
2023/04/19 00:59:16;;;;;;;;;;;13.00;91.40;;;13.30;56.14;99228.78;4988694;28;124089;-88
2023/04/19 01:01:42;;;;;;;;;;;13.00;91.40;;;13.26;56.06;99222.22;4976854;28;115031;-87
2023/04/19 01:04:10;;;;;;;;;;;12.90;91.40;;;13.23;55.94;99222.84;4991069;28;113687;-87
2023/04/19 01:06:37;;;;;;;;;;;12.90;91.40;;;13.23;56.00;99223.66;4970533;28;124234;-87
2023/04/19 01:09:03;;;;;;;;;;;12.90;91.40;;;13.26;56.07;99225.81;4993491;28;124542;-84
2023/04/19 01:11:29;;;;;;;;;;;13.00;91.40;;;13.29;55.95;99220.75;4984388;28;114455;-84
2023/04/19 01:13:58;;;;;;;;;;;13.00;91.40;;;13.30;55.95;99212.13;4982818;28;113250;-87
2023/04/19 01:16:29;;;;;;;;;;;13.00;91.40;;;13.29;56.20;99215.22;4976717;28;123193;-85
2023/04/19 01:19:01;;;;;;;;;;;13.00;91.50;;;13.29;56.02;99206.88;4981250;28;123871;-87
2023/04/19 01:21:37;;;;;;;;;;;13.00;91.50;;;13.26;56.20;99205.56;4972256;28;114807;-87
2023/04/19 01:24:03;;;;;;;;;;;12.90;91.40;;;13.24;56.06;99213.34;4981651;28;113896;-88
2023/04/19 01:26:30;;;;;;;;;;;12.90;91.50;;;13.24;56.13;99208.66;4969995;28;124235;-86
2023/04/19 01:28:58;;;;;;;;;;;12.90;91.40;;;13.24;55.99;99202.25;4971771;28;123107;-84
2023/04/19 01:31:25;;;;;;;;;;;12.90;91.50;;;13.23;56.21;99195.91;4970569;28;114417;-87
2023/04/19 01:33:51;;;;;;;;;;;12.90;91.50;;;13.16;56.22;99198.31;4984775;28;116503;-86
2023/04/19 01:36:17;;;;;;;;;;;12.80;91.50;;;13.12;56.40;99202.88;4981972;28;124629;-86
2023/04/19 01:38:46;;;;;;;;;;;12.80;91.50;;;13.13;56.06;99201.72;4975923;28;124678;-85
2023/04/19 01:41:13;;;;;;;;;;;12.80;91.50;;;13.14;56.43;99195.06;4979649;28;115412;-87
2023/04/19 01:43:41;;;;;;;;;;;12.90;91.60;;;13.19;56.32;99197.69;4972599;28;114805;-85
2023/04/19 01:46:15;;;;;;;;;;;12.90;91.60;;;13.20;56.34;99193.75;4985875;28;124467;-87
2023/04/19 01:48:41;;;;;;;;;;;12.90;91.60;;;13.17;56.29;99191.63;4982553;28;124902;-86
2023/04/19 01:51:16;;;;;;;;;;;12.80;91.60;;;13.17;56.14;99185.28;4976027;28;114337;-87
2023/04/19 01:53:51;;;;;;;;;;;12.80;91.50;;;13.17;56.21;99186.09;4991232;28;113105;-87
2023/04/19 01:56:17;;;;;;;;;;;12.90;91.60;;;13.16;56.19;99183.63;4988133;28;124852;-86
2023/04/19 01:58:49;;;;;;;;;;;12.80;91.60;;;13.16;56.16;99187.22;4988792;28;123833;-87
2023/04/19 02:01:16;;;;;;;;;;;12.80;91.60;;;13.15;56.24;99182.81;4975112;28;114292;-87
2023/04/19 02:03:42;;;;;;;;;;;12.80;91.60;;;13.15;56.26;99182.81;4979401;28;113561;-87
2023/04/19 02:06:16;;;;;;;;;;;12.90;91.60;;;13.15;56.28;99182.81;4970905;28;123162;-86
2023/04/19 02:08:42;;;;;;;;;;;12.80;91.60;;;13.10;56.39;99180.16;4978157;28;124283;-85
2023/04/19 02:11:15;;;;;;;;;;;12.80;91.60;;;13.03;56.19;99172.31;4989330;28;114370;-84
2023/04/19 02:13:47;;;;;;;;;;;12.70;91.60;;;12.98;56.48;99171.66;4989012;28;113930;-87
2023/04/19 02:16:13;;;;;;;;;;;12.70;91.70;;;12.92;56.74;99172.91;4979101;28;124425;-87
2023/04/19 02:18:40;;;;;;;;;;;12.60;91.70;;;12.91;56.60;99169.31;4969263;28;124149;-87
2023/04/19 02:21:15;;;;;;;;;;;12.70;91.70;;;12.91;56.68;99165.72;4972375;28;115044;-87
2023/04/19 02:23:41;;;;;;;;;;;12.90;91.80;;;12.90;56.86;99164.09;4979598;28;113471;-87
2023/04/19 02:26:11;;;;;;;;;;;12.60;91.70;;;12.83;57.20;99159.81;4976592;28;124480;-87
2023/04/19 02:28:38;;;;;;;;;;;12.60;91.90;;;12.75;57.19;99155.03;4987304;28;124191;-87
2023/04/19 02:31:05;;;;;;;;;;;12.50;91.90;;;12.76;57.36;99153.94;4978153;28;115318;-87
2023/04/19 02:33:35;;;;;;;;;;;12.50;91.90;;;12.76;57.34;99158.63;4968314;28;114437;-87
2023/04/19 02:36:01;;;;;;;;;;;12.50;91.90;;;12.73;57.59;99151.75;4979150;28;124247;-87
2023/04/19 02:38:27;;;;;;;;;;;12.50;92.00;;;12.70;57.02;99157.13;4976538;28;123848;-87
2023/04/19 02:40:54;;;;;;;;;;;12.40;92.10;;;12.64;57.57;99156.44;4977807;28;114842;-87
2023/04/19 02:43:23;;;;;;;;;;;12.40;92.20;;;12.62;57.72;99150.41;4978448;28;113627;-87
2023/04/19 02:45:50;;;;;;;;;;;12.30;92.10;;;12.61;57.71;99148.78;4982415;28;124551;-87
2023/04/19 02:48:18;;;;;;;;;;;12.40;92.20;;;12.61;57.68;99151.56;4989364;28;124559;-85
2023/04/19 02:50:47;;;;;;;;;;;12.30;92.20;;;12.63;57.58;99149.28;4991179;28;114273;-87
2023/04/19 02:53:14;;;;;;;;;;;12.40;92.30;;;12.61;57.55;99143.22;4987686;28;113740;-87
2023/04/19 02:55:42;;;;;;;;;;;12.30;92.20;;;12.61;57.70;99148.78;4987392;28;124115;-87
2023/04/19 02:58:11;;;;;;;;;;;12.30;92.20;;;12.63;57.46;99143.75;4991454;28;123658;-87
2023/04/19 03:00:39;;;;;;;;;;;12.40;92.30;;;12.62;57.46;99142.09;4988530;28;113991;-87
2023/04/19 03:03:06;;;;;;;;;;;12.40;92.30;;;12.64;57.64;99144.56;4989009;28;113908;-88
2023/04/19 03:05:34;;;;;;;;;;;12.40;92.30;;;12.65;57.62;99146.19;4987583;28;124268;-85
2023/04/19 03:08:01;;;;;;;;;;;12.40;92.30;;;12.62;57.69;99139.31;4987897;28;123988;-85
2023/04/19 03:10:27;;;;;;;;;;;12.30;92.30;;;12.60;57.94;99139.66;4988833;28;114978;-87
2023/04/19 03:12:53;;;;;;;;;;;12.40;92.30;;;12.62;57.79;99146.81;4973106;28;113978;-87
2023/04/19 03:15:22;;;;;;;;;;;12.30;92.30;;;12.63;57.86;99140.97;4987985;28;124197;-87
2023/04/19 03:17:49;;;;;;;;;;;12.30;92.40;;;12.63;57.98;99138.19;4975668;28;123902;-86
2023/04/19 03:20:15;;;;;;;;;;;12.30;92.40;;;12.60;58.11;99138.84;4989498;28;115555;-88
2023/04/19 03:22:42;;;;;;;;;;;12.30;92.40;;;12.57;58.15;99142.22;4988590;28;114748;-86
2023/04/19 03:25:12;;;;;;;;;;;12.30;92.40;;;12.53;57.93;99144.00;4967940;28;124157;-87
2023/04/19 03:27:38;;;;;;;;;;;12.30;92.50;;;12.48;58.22;99135.81;4979794;28;123796;-86
2023/04/19 03:30:06;;;;;;;;;;;12.20;92.50;;;12.45;58.02;99131.72;4969969;28;114670;-87
2023/04/19 03:32:34;;;;;;;;;;;12.20;92.50;;;12.42;58.34;99137.09;4972062;28;113407;-87
2023/04/19 03:35:00;;;;;;;;;;;12.20;92.50;;;12.42;58.39;99137.09;4973771;28;124129;-87
2023/04/19 03:37:33;;;;;;;;;;;12.20;92.50;;;12.43;58.09;99139.53;4971696;28;123944;-87
2023/04/19 03:39:59;;;;;;;;;;;12.20;92.60;;;12.38;58.58;99132.19;4985732;28;114366;-86
2023/04/19 03:42:30;;;;;;;;;;;12.20;92.60;;;12.37;58.27;99125.00;4968605;28;113579;-88
2023/04/19 03:44:58;;;;;;;;;;;12.20;92.60;;;12.35;58.45;99124.47;4969271;28;123940;-87
2023/04/19 03:47:25;;;;;;;;;;;12.20;92.60;;;12.35;58.64;99126.44;4971137;28;123785;-87
2023/04/19 03:49:57;;;;;;;;;;;12.10;92.60;;;12.38;58.46;99131.34;4974786;28;114558;-84
2023/04/19 03:52:24;;;;;;;;;;;12.10;92.60;;;12.38;58.45;99126.66;4969827;28;113877;-87
2023/04/19 03:54:57;;;;;;;;;;;12.10;92.60;;;12.40;58.54;99122.72;4968452;28;124145;-86
2023/04/19 03:57:23;;;;;;;;;;;12.10;92.60;;;12.40;58.43;99122.72;4984792;28;124056;-86
2023/04/19 03:59:56;;;;;;;;;;;12.20;92.70;;;12.38;58.56;99123.88;4978934;28;114605;-86
2023/04/19 04:02:22;;;;;;;;;;;12.10;92.70;;;12.35;58.61;99127.25;4970945;28;113843;-87
2023/04/19 04:04:54;;;;;;;;;;;12.10;92.70;;;12.32;58.60;99124.31;4970901;28;124106;-87
2023/04/19 04:07:22;;;;;;;;;;;12.10;92.80;;;12.29;58.56;99119.41;4973251;28;123759;-84
2023/04/19 04:09:48;;;;;;;;;;;11.80;92.60;;;12.28;58.53;99121.34;4987703;28;115422;-86
2023/04/19 04:12:17;;;;;;;;;;;12.00;92.80;;;12.27;58.88;99124.44;4973704;28;114491;-86
2023/04/19 04:14:43;;;;;;;;;;;12.00;92.80;;;12.29;58.55;99122.16;4969977;28;124100;-88
2023/04/19 04:17:10;;;;;;;;;;;12.10;92.80;;;12.29;58.61;99122.97;4968127;28;124133;-88
2023/04/19 04:19:36;;;;;;;;;;;12.10;92.80;;;12.31;58.60;99119.91;4972123;28;114583;-85
2023/04/19 04:22:07;;;;;;;;;;;12.10;92.80;;;12.35;58.63;99123.66;4981989;28;112729;-87
2023/04/19 04:24:44;;;;;;;;;;;12.10;92.80;;;12.36;58.52;99128.09;4975610;28;124115;-87
2023/04/19 04:27:10;;;;;;;;;;;12.10;92.80;;;12.35;58.38;99121.72;4982857;28;124071;-87
2023/04/19 04:29:37;;;;;;;;;;;12.10;92.80;;;12.36;58.58;99125.31;4978245;28;114390;-87
2023/04/19 04:32:09;;;;;;;;;;;12.10;92.80;;;12.38;58.30;99125.81;4982601;28;113592;-87
2023/04/19 04:34:43;;;;;;;;;;;12.10;92.80;;;12.35;58.27;99127.25;4981917;28;124099;-85
2023/04/19 04:37:10;;;;;;;;;;;12.10;92.70;;;12.35;58.57;99127.25;4986428;28;123788;-87
2023/04/19 04:39:38;;;;;;;;;;;12.10;92.70;;;12.36;58.40;99123.38;4979515;28;114546;-86
2023/04/19 04:42:07;;;;;;;;;;;12.10;92.80;;;12.35;58.26;99121.72;4976982;28;113259;-86
2023/04/19 04:44:37;;;;;;;;;;;12.10;92.70;;;12.31;58.37;99123.50;4989560;28;124577;-85
2023/04/19 04:47:06;;;;;;;;;;;12.10;92.70;;;12.29;58.12;99125.75;4986694;28;123816;-86
2023/04/19 04:49:32;;;;;;;;;;;12.10;92.70;;;12.28;58.52;99126.91;4973689;28;114356;-86
2023/04/19 04:51:58;;;;;;;;;;;12.10;92.70;;;12.28;58.55;99132.44;4998000;28;115522;-86
2023/04/19 04:54:25;;;;;;;;;;;12.10;92.70;;;12.28;58.48;99131.63;4978167;28;124829;-85
2023/04/19 04:56:53;;;;;;;;;;;12.10;92.70;;;12.27;58.61;99133.56;4988392;28;123774;-86
2023/04/19 04:59:19;;;;;;;;;;;12.10;93.10;;;12.28;58.62;99137.97;4990306;28;115962;-86
2023/04/19 05:01:46;;;;;;;;;;;12.00;92.70;;;12.29;58.63;99130.47;4972194;28;114396;-85
2023/04/19 05:04:12;;;;;;;;;;;12.10;92.70;;;12.28;58.32;99134.41;4973228;28;124439;-85
2023/04/19 05:06:44;;;;;;;;;;;12.00;92.60;;;12.28;58.42;99137.16;4975273;28;123834;-81
2023/04/19 05:09:10;;;;;;;;;;;12.00;92.70;;;12.27;58.29;99139.09;4972668;28;114400;-85
2023/04/19 05:11:37;;;;;;;;;;;12.00;92.70;;;12.25;58.24;99138.63;4972458;28;113014;-84
2023/04/19 05:14:05;;;;;;;;;;;12.00;92.70;;;12.19;58.25;99134.31;4976209;28;124438;-83
2023/04/19 05:16:32;;;;;;;;;;;11.90;92.80;;;12.14;58.67;99143.59;4979537;28;123873;-80
2023/04/19 05:18:58;;;;;;;;;;;11.90;92.80;;;12.09;58.67;99135.41;4978677;28;115678;-82
2023/04/19 05:21:32;;;;;;;;;;;11.80;92.80;;;12.09;58.54;99142.88;4976816;28;113829;-84
2023/04/19 05:23:58;;;;;;;;;;;11.80;92.80;;;12.05;58.52;99147.41;4992521;28;123821;-82
2023/04/19 05:26:24;;;;;;;;;;;11.80;92.80;;;12.02;59.05;99148.84;4990083;28;123720;-84
2023/04/19 05:28:53;;;;;;;;;;;11.80;93.10;;;12.06;58.79;99158.19;4977102;28;114410;-85
2023/04/19 05:31:19;;;;;;;;;;;11.80;93.20;;;12.08;59.04;99153.13;4983482;28;113830;-83
2023/04/19 05:33:46;;;;;;;;;;;11.80;93.10;;;12.08;58.79;99155.09;4981410;28;124178;-84
2023/04/19 05:36:19;;;;;;;;;;;11.80;93.00;;;12.07;58.80;99164.53;4972214;28;123719;-84
2023/04/19 05:38:46;;;;;;;;;;;11.80;92.90;;;12.06;58.76;99151.81;4973406;28;114154;-87
2023/04/19 05:41:12;;;;;;;;;;;11.80;92.90;;;12.06;58.48;99151.81;4981589;28;113771;-84
2023/04/19 05:43:41;;;;;;;;;;;11.80;92.80;;;12.07;58.67;99159.00;4983431;28;124081;-86
2023/04/19 05:46:07;;;;;;;;;;;11.80;92.80;;;12.08;58.55;99155.09;4972434;28;124257;-86
2023/04/19 05:48:34;;;;;;;;;;;11.80;92.80;;;12.07;58.46;99147.94;4973386;28;115221;-85
2023/04/19 05:51:03;;;;;;;;;;;11.80;92.80;;;12.08;58.60;99152.31;4980129;28;114648;-85
2023/04/19 05:53:30;;;;;;;;;;;11.80;92.80;;;12.04;58.39;99156.88;4981658;28;123731;-85
2023/04/19 05:55:56;;;;;;;;;;;11.80;92.70;;;11.98;58.62;99158.09;4982330;28;123209;-86
2023/04/19 05:58:22;;;;;;;;;;;11.80;92.70;;;11.93;58.65;99151.56;4969981;28;114063;-86
2023/04/19 06:00:51;;;;;;;;;;;11.70;92.70;;;11.92;58.83;99160.97;4979009;28;112640;-85
2023/04/19 06:03:17;;;;;;;;;;;11.70;92.80;;;11.92;58.81;99163.75;4956222;28;123128;-86
2023/04/19 06:05:43;;;;;;;;;;;11.70;92.80;;;11.94;58.47;99161.50;4984965;28;123966;-83
2023/04/19 06:08:10;;;;;;;;;;;11.70;92.80;;;11.98;58.75;99153.38;4979686;28;114381;-85
2023/04/19 06:10:39;;;;;;;;;;;11.70;92.80;;;12.04;58.84;99159.63;4974795;28;114495;-84
2023/04/19 06:13:05;;;;;;;;;;;11.70;92.90;;;12.08;58.54;99155.09;4975312;28;124331;-87
2023/04/19 06:15:32;;;;;;;;;;;11.80;92.90;;;12.09;58.83;99159.50;4973005;28;123837;-84
2023/04/19 06:17:58;;;;;;;;;;;11.80;93.00;;;12.12;58.49;99161.66;4983800;28;114405;-80
2023/04/19 06:20:26;;;;;;;;;;;11.80;92.90;;;12.12;58.57;99167.19;4975694;28;113562;-83
2023/04/19 06:22:52;;;;;;;;;;;11.80;92.90;;;12.13;58.28;99152.19;4978083;28;124458;-81
2023/04/19 06:25:19;;;;;;;;;;;11.80;92.90;;;12.12;58.35;99162.47;4978522;28;124377;-83
2023/04/19 06:27:53;;;;;;;;;;;11.80;92.80;;;12.13;58.42;99157.75;4980644;28;114604;-83
2023/04/19 06:30:20;;;;;;;;;;;11.80;92.80;;;12.15;58.34;99155.47;4979822;28;113513;-80
2023/04/19 06:32:46;;;;;;;;;;;11.80;92.70;;;12.16;58.20;99157.91;4972519;28;124917;-80
2023/04/19 06:35:15;;;;;;;;;;;11.90;92.60;;;12.17;58.08;99158.75;4979331;28;123823;-81
2023/04/19 06:37:41;;;;;;;;;;;11.90;92.60;;;12.18;57.93;99160.38;4979018;28;115368;-81
2023/04/19 06:40:16;;;;;;;;;;;11.90;92.60;;;12.22;57.82;99157.81;4974263;28;114811;-79
2023/04/19 06:42:43;;;;;;;;;;;11.90;92.50;;;12.21;57.58;99154.22;4977282;28;124114;-82
2023/04/19 06:45:18;;;;;;;;;;;11.90;92.50;;;12.23;57.78;99156.69;4977566;28;123997;-85
2023/04/19 06:47:44;;;;;;;;;;;11.90;92.80;;;12.24;57.69;99163.84;4970625;28;114410;-81
2023/04/19 06:50:14;;;;;;;;;;;11.90;92.50;;;12.26;57.90;99151.31;4975793;28;113972;-83
2023/04/19 06:52:41;;;;;;;;;;;12.00;92.60;;;12.30;57.59;99157.03;4977202;28;124193;-77
2023/04/19 06:55:08;;;;;;;;;;;11.90;92.60;;;12.33;57.92;99156.41;4985593;28;124295;-80
2023/04/19 06:57:34;;;;;;;;;;;12.00;92.60;;;12.39;57.67;99155.16;4971461;28;113791;-81
2023/04/19 07:00:05;;;;;;;;;;;12.00;92.50;;;12.44;57.26;99154.19;4979297;28;113971;-80
2023/04/19 07:02:34;;;;;;;;;;;12.00;92.50;;;12.45;57.26;99158.63;4982688;28;123293;-87
2023/04/19 07:05:03;;;;;;;;;;;12.00;92.40;;;12.44;57.28;99159.75;4970795;28;123944;-87
2023/04/19 07:07:30;;;;;;;;;;;12.10;92.40;;;12.44;57.04;99155.03;4986236;28;115126;-86
2023/04/19 07:09:56;;;;;;;;;;;12.10;92.30;;;12.48;57.22;99152.44;4974522;28;114413;-83
2023/04/19 07:12:26;;;;;;;;;;;12.10;92.30;;;12.49;56.97;99154.91;4965898;28;123881;-86
2023/04/19 07:14:55;;;;;;;;;;;12.10;92.30;;;12.47;57.12;99156.38;4954765;28;123264;-82
2023/04/19 07:17:22;;;;;;;;;;;12.10;92.30;;;12.46;57.27;99151.94;4981999;28;114272;-85
2023/04/19 07:19:56;;;;;;;;;;;12.10;92.30;;;12.45;57.04;99147.53;4969923;28;113969;-83
2023/04/19 07:22:22;;;;;;;;;;;12.10;92.30;;;12.42;57.06;99137.09;4981846;28;124187;-84
2023/04/19 07:24:53;;;;;;;;;;;12.00;92.30;;;12.45;56.77;99144.78;4968263;28;123793;-85
2023/04/19 07:27:19;;;;;;;;;;;12.00;92.30;;;12.51;57.43;99146.25;4972277;28;113754;-85
2023/04/19 07:29:45;;;;;;;;;;;12.10;92.40;;;12.57;57.20;99136.69;4986987;28;115222;-85
2023/04/19 07:32:15;;;;;;;;;;;12.20;92.40;;;12.63;56.79;99143.75;4978108;28;124591;-80
2023/04/19 07:34:45;;;;;;;;;;;12.20;92.40;;;12.67;57.06;99133.63;4971774;28;124101;-82
2023/04/19 07:37:14;;;;;;;;;;;12.20;92.40;;;12.74;56.64;99133.19;4977508;28;114577;-84
2023/04/19 07:39:42;;;;;;;;;;;12.30;92.30;;;12.79;56.72;99130.28;4972462;28;113818;-82
2023/04/19 07:42:09;;;;;;;;;;;12.40;92.20;;;12.90;56.56;99125.28;4976207;28;125049;-77
2023/04/19 07:44:38;;;;;;;;;;;12.40;92.20;;;12.98;56.21;99121.72;4979787;28;124395;-78
2023/04/19 07:47:05;;;;;;;;;;;12.50;92.10;;;12.99;56.13;99128.91;4984362;28;114461;-79
2023/04/19 07:49:33;;;;;;;;;;;12.50;91.90;;;13.02;56.36;99128.25;4976694;28;113242;-86
2023/04/19 07:52:06;;;;;;;;;;;12.50;92.00;;;13.07;55.91;99121.75;4957348;28;123667;-83
2023/04/19 07:54:33;;;;;;;;;;;12.60;92.00;;;13.13;55.73;99114.91;4969575;28;123014;-82
2023/04/19 07:57:04;;;;;;;;;;;12.60;91.80;;;13.17;55.19;99115.91;4969536;28;114404;-83
2023/04/19 07:59:32;;;;;;;;;;;12.70;91.70;;;13.15;55.11;99113.44;4968054;28;113721;-85
2023/04/19 08:02:04;;;;;;;;;;;12.70;91.60;;;13.18;55.42;99107.25;4971459;28;124127;-84
2023/04/19 08:04:31;;;;;;;;;;;12.70;91.60;;;13.20;54.72;99112.50;4954787;28;123158;-82
2023/04/19 08:06:58;;;;;;;;;;;12.80;91.40;;;13.22;54.78;99113.00;4951224;28;113813;-83
2023/04/19 08:09:27;;;;;;;;;;;12.80;91.30;;;13.24;54.62;99111.53;4981570;28;113833;-83
2023/04/19 08:11:56;;;;;;;;;;;12.80;91.10;;;13.28;54.71;99113.69;4973537;28;123761;-83
2023/04/19 08:14:25;;;;;;;;;;;12.80;91.10;;;13.30;54.70;99109.44;4964516;28;124176;-81
2023/04/19 08:16:52;;;;;;;;;;;12.90;91.10;;;13.34;54.35;99106.84;4969025;28;115303;-80
2023/04/19 08:19:18;;;;;;;;;;;12.90;91.00;;;13.39;54.30;99109.47;4977863;28;114597;-79
2023/04/19 08:21:44;;;;;;;;;;;13.00;90.90;;;13.40;54.26;99105.53;4966260;28;124544;-83
2023/04/19 08:24:13;;;;;;;;;;;13.00;90.90;;;13.42;54.16;99106.84;4966564;28;124660;-83
2023/04/19 08:26:40;;;;;;;;;;;13.00;90.80;;;13.44;53.71;99101.78;4967280;28;114171;-82
2023/04/19 08:29:06;;;;;;;;;;;13.10;90.60;;;13.48;53.67;99088.06;4972393;28;113633;-85
2023/04/19 08:31:32;;;;;;;;;;;13.10;90.60;;;13.56;53.70;99097.56;4965908;28;125769;-86
2023/04/19 08:34:04;;;;;;;;;;;13.20;90.70;;;13.65;53.50;99098.41;4972116;28;123967;-83
2023/04/19 08:36:30;;;;;;;;;;;13.20;90.50;;;13.70;52.74;99098.22;4969148;28;114695;-82
2023/04/19 08:38:57;;;;;;;;;;;13.30;90.10;;;13.75;52.08;99111.13;4967535;28;114568;-83
2023/04/19 08:41:27;;;;;;;;;;;13.30;89.90;;;13.77;51.65;99098.56;4965524;28;124584;-82
2023/04/19 08:43:54;;;;;;;;;;;13.30;89.00;;;13.82;51.52;99100.38;4964145;28;124196;-81
2023/04/19 08:46:28;;;;;;;;;;;13.30;88.70;;;13.88;51.11;99105.41;4967739;28;114407;-82
2023/04/19 08:48:55;;;;;;;;;;;13.40;88.50;;;13.95;51.28;99091.06;4983308;28;113875;-80
2023/04/19 08:51:21;;;;;;;;;;;13.40;88.80;;;14.03;51.04;99089.41;4976621;28;124396;-81
2023/04/19 08:53:51;;;;;;;;;;;13.50;88.50;;;14.09;50.48;99088.91;4977357;28;123832;-82
2023/04/19 08:56:27;;;;;;;;;;;13.60;88.10;;;14.08;50.37;99094.81;4975670;28;114933;-82
2023/04/19 08:58:53;;;;;;;;;;;13.50;87.50;;;14.00;49.99;99088.09;4973594;28;113919;-82
2023/04/19 09:01:27;;;;;;;;;;;13.50;87.00;;;13.98;50.28;99087.63;4976727;28;124209;-84
2023/04/19 09:03:53;;;;;;;;;;;13.50;87.10;;;14.01;50.19;99080.59;4967127;28;123907;-86
2023/04/19 09:06:19;;;;;;;;;;;13.50;87.40;;;14.09;50.35;99077.78;4978443;28;115563;-86
2023/04/19 09:08:57;;;;;;;;;;;13.60;87.50;;;14.20;50.11;99077.44;4975698;28;115198;-84
2023/04/19 09:11:37;;;;;;;;;;;13.60;87.40;;;14.31;50.53;99073.97;4984844;28;124392;-85
2023/04/19 09:14:19;;;;;;;;;;;13.80;87.90;;;14.43;49.38;99062.19;4988923;28;123464;-84
2023/04/19 09:16:51;;;;;;;;;;;13.80;86.80;;;14.44;49.15;99066.59;4974597;28;114298;-86
2023/04/19 09:19:19;;;;;;;;;;;13.80;86.50;;;14.49;49.47;99074.75;4972462;28;114393;-84
2023/04/19 09:21:53;;;;;;;;;;;13.90;86.70;;;14.57;49.59;99075.91;4967188;28;123680;-84
2023/04/19 09:24:37;;;;;;;;;;;14.00;86.70;;;14.67;49.02;99056.09;4972605;28;123806;-84
2023/04/19 09:27:06;;;;;;;;;;;14.10;86.40;;;14.67;48.63;99061.66;4982575;28;113640;-83
2023/04/19 09:29:32;;;;;;;;;;;14.10;85.60;;;14.66;48.92;99068.34;4971898;28;113834;-85
2023/04/19 09:32:07;;;;;;;;;;;14.10;85.90;;;14.71;49.33;99056.22;4968502;28;124750;-83
2023/04/19 09:34:50;;;;;;;;;;;14.20;86.30;;;14.71;48.98;99051.47;4974191;28;123950;-84
2023/04/19 09:37:16;;;;;;;;;;;14.20;86.00;;;14.68;49.02;99051.34;4981664;28;114819;-85
2023/04/19 09:39:42;;;;;;;;;;;14.20;85.50;;;14.67;48.99;99046.91;4971177;28;112973;-84
2023/04/19 09:42:12;;;;;;;;;;;14.20;85.70;;;14.70;49.12;99044.28;4969854;28;124957;-84
2023/04/19 09:44:38;;;;;;;;;;;14.30;85.90;;;14.76;49.12;99042.16;4968044;28;124122;-84
2023/04/19 09:47:26;;;;;;;;;;;14.30;85.90;;;14.74;48.85;99045.25;4958033;28;112946;-83
2023/04/19 09:50:14;;;;;;;;;;;14.30;85.50;;;14.75;48.93;99032.19;4973929;28;113758;-84
2023/04/19 09:52:54;;;;;;;;;;;14.30;85.70;;;14.82;49.36;99032.44;4971384;28;123745;-85
2023/04/19 09:55:25;;;;;;;;;;;14.40;86.30;;;14.90;49.14;99037.16;4981129;28;123513;-83
2023/04/19 09:57:54;;;;;;;;;;;14.50;86.00;;;14.91;48.56;99035.19;4989703;28;115731;-85
2023/04/19 10:00:24;;;;;;;;;;;14.50;85.10;;;14.84;48.16;99032.13;4961475;28;114405;-84
2023/04/19 10:02:56;;;;;;;;;;;14.40;85.20;;;14.83;48.74;99022.97;4980285;28;123952;-84
2023/04/19 10:05:25;;;;;;;;;;;14.40;85.00;;;14.87;48.38;99029.47;4982971;28;123537;-83
2023/04/19 10:07:53;;;;;;;;;;;14.50;85.00;;;14.96;47.97;99021.91;4974264;28;114791;-84
2023/04/19 10:10:25;;;;;;;;;;;14.50;84.20;;;14.99;47.48;99018.47;4968382;28;113538;-84
2023/04/19 10:12:52;;;;;;;;;;;14.60;84.00;;;15.05;47.72;99019.06;4985335;28;124384;-84
2023/04/19 10:15:29;;;;;;;;;;;14.60;84.10;;;15.10;47.91;99018.03;4961080;28;123739;-83
2023/04/19 10:17:57;;;;;;;;;;;14.60;84.10;;;15.11;47.61;99016.91;4961269;28;113648;-85
2023/04/19 10:20:32;;;;;;;;;;;14.70;83.60;;;15.14;47.58;99016.22;4967105;28;112875;-84
2023/04/19 10:23:01;;;;;;;;;;;14.70;83.60;;;15.14;47.82;99014.25;4981037;28;125666;-82
2023/04/19 10:25:30;;;;;;;;;;;14.70;83.70;;;15.15;47.63;99012.28;4984804;28;123583;-82
2023/04/19 10:27:59;;;;;;;;;;;14.70;83.90;;;15.18;47.86;99006.88;4988562;28;114447;-84
2023/04/19 10:30:30;;;;;;;;;;;14.70;83.90;;;15.22;48.16;99007.00;4968195;28;113981;-82
2023/04/19 10:33:01;;;;;;;;;;;14.80;84.20;;;15.25;48.02;99001.56;4980722;28;124133;-84
2023/04/19 10:35:42;;;;;;;;;;;14.50;84.00;;;15.31;47.94;99004.97;4967855;28;124253;-83
2023/04/19 10:38:11;;;;;;;;;;;14.80;84.30;;;15.31;48.01;99004.16;4975871;28;114202;-79
2023/04/19 10:40:50;;;;;;;;;;;14.90;83.80;;;15.33;47.83;98996.28;4995774;28;113897;-85
2023/04/19 10:43:20;;;;;;;;;;;14.90;83.80;;;15.29;47.85;99001.72;4978781;28;124581;-81
2023/04/19 10:45:46;;;;;;;;;;;14.90;83.40;;;15.26;47.81;99005.19;4973306;28;123665;-82
2023/04/19 10:48:32;;;;;;;;;;;14.80;83.70;;;15.21;47.77;98994.25;4978835;28;115607;-83
2023/04/19 10:50:58;;;;;;;;;;;14.80;83.70;;;15.19;48.02;98996.56;4978059;28;114068;-83
2023/04/19 10:53:47;;;;;;;;;;;14.80;83.80;;;15.18;47.81;98992.16;4979508;28;123813;-83
2023/04/19 10:56:43;;;;;;;;;;;14.80;83.60;;;15.12;48.10;98985.13;4982366;28;124373;-84
2023/04/19 10:59:20;;;;;;;;;;;14.70;83.70;;;15.12;48.04;98985.13;4976024;28;114425;-83
2023/04/19 11:01:56;;;;;;;;;;;14.70;84.20;;;15.13;48.31;98978.44;4979011;28;113884;-84
2023/04/19 11:04:25;;;;;;;;;;;14.80;84.10;;;15.12;48.25;98972.03;4974958;28;124808;-84
2023/04/19 11:07:00;;;;;;;;;;;14.70;84.10;;;15.08;48.51;98964.72;4980595;28;123618;-84
2023/04/19 11:09:33;;;;;;;;;;;14.70;84.20;;;15.05;48.43;98969.00;4973336;28;113468;-86
2023/04/19 11:12:22;;;;;;;;;;;14.60;84.30;;;15.01;48.48;98973.59;4972622;28;114190;-83
2023/04/19 11:14:59;;;;;;;;;;;14.60;84.30;;;14.97;48.37;98962.31;4984740;28;123403;-83
2023/04/19 11:17:36;;;;;;;;;;;14.60;83.80;;;14.91;48.60;98960.91;4955133;28;124164;-82